TAF MZBZ
MZBZ 071500Z 0718/0818 10007KT 9999 SCT022 PROB30 TEMPO 0718/0723 5000 SHRA BKN015 PROB30 TEMPO 0810/0818 5000 SHRA BKN015=
METAR MZBZ
MZBZ 080000Z 10004KT 9999 SCT021 27/24 A2995 Q1014 NOSIG=
MZBZ 072300Z 09004KT 9999 FEW021 28/25 A2995 Q1014 NOSIG=
MZBZ 072200Z 09004KT 9999 FEW022 28/25 A2994 Q1013 RESHRA NOSIG=
MZBZ 072100Z 13003KT 9999 -SHRA FEW017 SCT021 26/24 A2994 Q1014 NOSIG=
MZBZ 072000Z 05010KT 9999 SCT018 28/25 A2994 Q1014 TEMPO 5000 SHRA RMK TCU-NW=
WC MZBZ
WS MZBZ
WV MZBZ